Bretagne — FNBR — position and weather

sailwx.info

Track history (hours):
 
Tides and Currents Weather Stations Pressure Air Temp Water Temp Dewpoint Dewpoint Depression Visibility Wind Speed Wind Dir Waves Ship Positions

Bretagne

Operator: Brittany Ferries

Last reported at 2017-May-28 04:15 UTC. Time now 2017-May-28 04:45 UTC.
Position N 49°01' W 002°22'.

Length 151 m; beam 27 m.

Type: Other ship. MMSI: 227286000.

Date/timePositionNaut miles runAvg speedWind from/ knotsBaromVisibWave heightAir tempDewpointWater temp
2017-May-28 04:15N 49°01' W 002°22'417.3
2017-May-28 04:00N 49°05' W 002°22'713.8
2017-May-28 03:31N 49°12' W 002°22'713.8
2017-May-28 03:01N 49°18' W 002°20'714.5
2017-May-28 02:31N 49°25' W 002°15'714.2
2017-May-28 02:00N 49°31' W 002°11'714.7
2017-May-28 01:30N 49°38' W 002°07'816.0
2017-May-28 01:01N 49°46' W 002°02'712.6
2017-May-28 00:28N 49°51' W 001°56'815.7
2017-May-27 23:56N 49°58' W 001°49'715.5
2017-May-27 23:30N 50°04' W 001°43'814.8
2017-May-27 22:58N 50°10' W 001°36'714.2
2017-May-27 22:30N 50°16' W 001°30'713.9
2017-May-27 22:00N 50°21' W 001°24'713.8
2017-May-27 21:30N 50°27' W 001°17'713.2
2017-May-27 21:00N 50°32' W 001°12'612.9
2017-May-27 20:30N 50°38' W 001°06'611.6
2017-May-27 20:00N 50°43' W 001°03'611.7
2017-May-27 19:30N 50°48' W 001°07'1 1.5
2017-May-27 18:58N 50°49' W 001°06'0 0.0
2017-May-27 18:28N 50°49' W 001°06'0 0.0
2017-May-27 17:58N 50°49' W 001°06'0 0.0
2017-May-27 17:28N 50°49' W 001°06'0 0.8
2017-May-27 17:00N 50°49' W 001°06'4 8.4
2017-May-27 16:30N 50°45' W 001°05'612.9
2017-May-27 16:00N 50°39' W 000°59'816.0
2017-May-27 15:29N 50°32' W 001°05'815.9
2017-May-27 14:59N 50°25' W 001°12'816.1
2017-May-27 14:30N 50°18' W 001°18'49 3.7
2017-May-27 01:18N 49°39' W 002°05'3014.8
2017-May-26 23:17N 50°05' W 001°41'515.7
2017-May-26 23:00N 50°08' W 001°37'815.2
2017-May-26 22:30N 50°14' W 001°29'714.2
2017-May-26 21:59N 50°21' W 001°24'714.5
2017-May-26 21:30N 50°27' W 001°18'713.7
2017-May-26 21:00N 50°32' W 001°12'713.2
2017-May-26 20:31N 50°38' W 001°06'611.2
2017-May-26 20:00N 50°43' W 001°02'612.6
2017-May-26 19:31N 50°49' W 001°07'1 1.3
2017-May-26 19:00N 50°49' W 001°06'0 0.0
2017-May-26 18:30N 50°49' W 001°06'0 0.0
2017-May-26 18:00N 50°49' W 001°06'0 0.0
2017-May-26 17:30N 50°49' W 001°06'1 1.5
2017-May-26 17:01N 50°48' W 001°07'510.8
2017-May-26 16:30N 50°44' W 001°03'612.2
2017-May-26 16:00N 50°38' W 001°01'816.7
2017-May-26 15:30N 50°31' W 001°09'916.9
2017-May-26 15:00N 50°24' W 001°17'817.1
2017-May-26 14:30N 50°17' W 001°24'4416.4
2017-May-26 11:51N 49°43' W 002°06'616.4
2017-May-26 11:29N 49°37' W 002°08'919.0
2017-May-26 11:00N 49°28' W 002°14'26 3.9
2017-May-26 04:20N 49°03' W 002°22'515.0
2017-May-26 04:00N 49°08' W 002°22'714.5
2017-May-26 03:30N 49°15' W 002°21'2213.2
2017-May-26 01:48N 49°36' W 002°07'414.7
2017-May-26 01:30N 49°40' W 002°04'816.7
2017-May-26 01:00N 49°47' W 001°58'1614.5
2017-May-25 23:55N 49°60' W 001°43'817.4
2017-May-25 23:26N 50°07' W 001°38'2216.6
2017-May-25 22:08N 50°26' W 001°19'216.0
2017-May-25 22:00N 50°27' W 001°17'815.5
2017-May-25 21:30N 50°34' W 001°11'714.4
2017-May-25 21:01N 50°40' W 001°04'611.3
2017-May-25 20:30N 50°45' W 001°05'3 6.9
2017-May-25 20:00N 50°49' W 001°06'0 0.0
2017-May-25 19:29N 50°49' W 001°06'0 0.0
2017-May-25 18:59N 50°49' W 001°06'0 0.0
2017-May-25 18:30N 50°49' W 001°06'0 0.0
2017-May-25 17:59N 50°49' W 001°06'1 2.4
2017-May-25 17:30N 50°48' W 001°07'612.0
2017-May-25 17:00N 50°43' W 001°01'612.4
2017-May-25 16:31N 50°37' W 001°04'1019.3
2017-May-25 16:00N 50°30' W 001°13'918.9
2017-May-25 15:30N 50°21' W 001°20'918.0
2017-May-25 15:00N 50°14' W 001°28'817.0
2017-May-25 14:31N 50°07' W 001°35'1616.1
2017-May-25 13:31N 49°54' W 001°51'815.9
2017-May-25 13:00N 49°47' W 001°57'713.1
2017-May-25 12:29N 49°41' W 002°03'815.2
2017-May-25 11:59N 49°34' W 002°07'1917.2
2017-May-25 10:52N 49°17' W 002°20'2219.5
2017-May-25 09:46N 48°56' W 002°21'1620.5
2017-May-25 08:57N 48°42' W 002°06'4 1.3
2017-May-25 05:53N 48°39' W 002°03'715.8
2017-May-25 05:28N 48°45' W 002°08'2013.7
2017-May-25 04:02N 49°02' W 002°22'112.4
2017-May-25 04:00N 49°03' W 002°22'912.9
2017-May-25 03:20N 49°11' W 002°22'512.3
2017-May-25 02:55N 49°16' W 002°21'711.8
2017-May-25 02:19N 49°23' W 002°16'1913.6
2017-May-25 00:56N 49°39' W 002°03'2014.7
2017-May-24 23:36N 49°57' W 001°49'214.3
2017-May-24 23:29N 49°58' W 001°48'2216.8
2017-May-24 22:10N 50°17' W 001°29'316.1
2017-May-24 22:01N 50°19' W 001°27'916.4
2017-May-24 21:27N 50°26' W 001°18'715.6
2017-May-24 21:00N 50°32' W 001°12'715.0
2017-May-24 20:30N 50°38' W 001°06'611.7
2017-May-24 20:01N 50°44' W 001°04'5 9.8
2017-May-24 19:31N 50°49' W 001°06'0 0.7
2017-May-24 19:01N 50°49' W 001°06'0 0.0
2017-May-24 18:30N 50°49' W 001°06'0 0.0
2017-May-24 18:01N 50°49' W 001°06'0 0.0
2017-May-24 17:31N 50°49' W 001°06'0 0.0
2017-May-24 17:00N 50°49' W 001°06'0 0.0
2017-May-24 16:31N 50°49' W 001°06'0 0.0
2017-May-24 16:00N 50°49' W 001°06'0 0.0
2017-May-24 15:30N 50°49' W 001°06'0 0.0
2017-May-24 15:00N 50°49' W 001°06'0 0.0
2017-May-24 14:30N 50°49' W 001°06'0 0.0
2017-May-24 13:31N 50°49' W 001°06'0 0.0
2017-May-24 13:01N 50°49' W 001°06'0 0.0
2017-May-24 12:31N 50°49' W 001°06'0 0.0
2017-May-24 12:01N 50°49' W 001°06'0 0.0
2017-May-24 11:30N 50°49' W 001°06'0 0.0
2017-May-24 11:01N 50°49' W 001°06'0 0.0
2017-May-24 10:30N 50°49' W 001°06'0 0.0
2017-May-24 10:01N 50°49' W 001°06'0 0.0
2017-May-24 09:30N 50°49' W 001°06'0 0.0
2017-May-24 09:01N 50°49' W 001°06'0 0.0
2017-May-24 08:31N 50°49' W 001°06'0 0.0
2017-May-24 08:01N 50°49' W 001°06'0 0.0
2017-May-24 07:31N 50°49' W 001°06'0 0.0
2017-May-24 07:00N 50°49' W 001°06'0 0.6
2017-May-24 06:31N 50°49' W 001°06'4 8.8
2017-May-24 06:01N 50°44' W 001°04'612.7
2017-May-24 05:30N 50°38' W 001°06'917.3
2017-May-24 05:00N 50°31' W 001°13'1613.1
2017-May-24 03:47N 50°18' W 001°27'1214.5
2017-May-24 02:56N 50°07' W 001°38'914.1
2017-May-24 02:15N 49°60' W 001°47'75 3.6
2017-May-23 05:21N 48°47' W 002°11'1916.4
2017-May-23 04:10N 49°05' W 002°22'215.5
2017-May-23 04:00N 49°07' W 002°22'814.9
2017-May-23 03:30N 49°15' W 002°22'612.0
2017-May-23 03:00N 49°20' W 002°19'5 9.5
2017-May-23 02:30N 49°24' W 002°15'5 9.9
2017-May-23 02:01N 49°29' W 002°12'510.2
2017-May-23 01:31N 49°34' W 002°09'611.2
2017-May-23 01:01N 49°39' W 002°06'612.6
2017-May-23 00:30N 49°45' W 002°03'812.3
2017-May-22 23:53N 49°51' W 001°56'612.6
2017-May-22 23:26N 49°56' W 001°51'715.8
2017-May-22 23:00N 50°01' W 001°45'1117.7
2017-May-22 22:22N 50°10' W 001°33'617.4
2017-May-22 22:00N 50°14' W 001°26'816.6
2017-May-22 21:30N 50°22' W 001°23'815.8
2017-May-22 21:00N 50°29' W 001°17'816.9
2017-May-22 20:30N 50°36' W 001°08'714.7
2017-May-22 20:00N 50°42' W 001°03'612.1
2017-May-22 19:30N 50°48' W 001°07'1 2.3
2017-May-22 19:00N 50°49' W 001°06'0 0.0
2017-May-22 18:30N 50°49' W 001°06'0 0.0
2017-May-22 18:00N 50°49' W 001°06'0 0.0
2017-May-22 17:31N 50°49' W 001°06'0 0.1
2017-May-22 17:01N 50°49' W 001°06'4 8.2
2017-May-22 16:30N 50°45' W 001°05'713.4
2017-May-22 16:00N 50°38' W 001°06'817.0
2017-May-22 15:30N 50°31' W 001°14'1216.2
2017-May-22 14:45N 50°21' W 001°26'415.5
2017-May-22 14:29N 50°18' W 001°30'9615.7
2017-May-22 08:21N 48°45' W 002°09'6 1.5
2017-May-22 04:16N 48°50' W 002°15'515.3
2017-May-22 03:55N 48°54' W 002°21'5312.6
2017-May-21 23:44N 49°45' W 002°01'716.6
2017-May-21 23:18N 49°51' W 001°56'617.3
2017-May-21 22:55N 49°56' W 001°49'819.6
2017-May-21 22:31N 50°03' W 001°42'1618.0
2017-May-21 21:36N 50°17' W 001°28'117.5
2017-May-21 21:30N 50°18' W 001°27'917.4
2017-May-21 20:59N 50°26' W 001°19'817.4
2017-May-21 20:30N 50°33' W 001°12'917.2
2017-May-21 20:00N 50°40' W 001°04'612.4
2017-May-21 19:30N 50°46' W 001°06'3 5.0
2017-May-21 18:58N 50°49' W 001°06'0 0.0
2017-May-21 18:28N 50°49' W 001°06'0 0.0
2017-May-21 17:58N 50°49' W 001°06'0 0.0
2017-May-21 17:28N 50°49' W 001°06'0 0.0
2017-May-21 17:00N 50°49' W 001°06'4 7.8
2017-May-21 16:31N 50°45' W 001°05'714.1
2017-May-21 16:00N 50°38' W 001°06'1020.7
2017-May-21 15:30N 50°29' W 001°15'1019.3
2017-May-21 15:00N 50°21' W 001°24'1019.3
2017-May-21 14:28N 50°13' W 001°33'3318.7
2017-May-21 12:43N 49°45' W 002°01'420.4
2017-May-21 12:30N 49°41' W 002°04'1319.6
2017-May-21 11:52N 49°30' W 002°12'5216.8
2017-May-21 08:46N 48°38' W 002°02'0 0.0
2017-May-21 05:59N 48°38' W 002°02'8111.6
2017-May-20 22:59N 49°59' W 001°51'3516.7
2017-May-20 20:52N 50°27' W 001°18'616.8
2017-May-20 20:31N 50°32' W 001°12'816.8
2017-May-20 20:01N 50°39' W 001°05'612.0
2017-May-20 19:30N 50°45' W 001°05'3 6.7
2017-May-20 19:00N 50°49' W 001°06'0 0.0
2017-May-20 18:30N 50°49' W 001°06'0 0.0
2017-May-20 18:00N 50°49' W 001°06'0 0.0
2017-May-20 17:30N 50°49' W 001°06'0 0.0
2017-May-20 17:01N 50°49' W 001°06'4 7.4
2017-May-20 16:31N 50°45' W 001°05'714.4
2017-May-20 16:00N 50°38' W 001°06'20 1.1
2017-May-19 21:27N 50°21' W 001°24'716.3
2017-May-19 21:00N 50°27' W 001°18'816.6
2017-May-19 20:30N 50°34' W 001°10'816.2
2017-May-19 20:01N 50°41' W 001°03'612.6
2017-May-19 19:30N 50°47' W 001°06'2 3.9
2017-May-19 18:59N 50°49' W 001°06'0 0.0
2017-May-19 18:31N 50°49' W 001°06'0 0.0
2017-May-19 18:00N 50°49' W 001°06'0 0.0
2017-May-19 17:30N 50°49' W 001°06'2 3.9
2017-May-19 17:00N 50°47' W 001°06'815.4
2017-May-19 16:31N 50°41' W 000°58'815.6
2017-May-19 16:00N 50°36' W 001°08'917.0
2017-May-19 15:30N 50°30' W 001°17'7 0.4
2017-May-18 21:27N 50°23' W 001°21'716.6
2017-May-18 21:00N 50°30' W 001°14'816.1
2017-May-18 20:30N 50°36' W 001°08'714.1
2017-May-18 20:00N 50°43' W 001°03'612.0
2017-May-18 19:30N 50°48' W 001°07'1 1.5
2017-May-18 19:00N 50°49' W 001°06'0 0.0
2017-May-18 18:29N 50°49' W 001°06'0 0.0
2017-May-18 17:58N 50°49' W 001°06'0 0.0
2017-May-18 17:28N 50°49' W 001°06'0 0.0
2017-May-18 17:01N 50°49' W 001°06'3 6.7
2017-May-18 16:30N 50°45' W 001°05'815.3
2017-May-18 16:00N 50°38' W 001°07'  
Track history (hours):
 
Tides and Currents Weather Stations Pressure Air Temp Water Temp Dewpoint Dewpoint Depression Visibility Wind Speed Wind Dir Waves Ship Positions

Bretagne

Operator: Brittany Ferries

Last reported at 2017-May-28 04:15 UTC. Time now 2017-May-28 04:45 UTC.
Position N 49°01' W 002°22'.

Length 151 m; beam 27 m.

Type: Other ship. MMSI: 227286000.

Date/timePositionNaut miles runAvg speedWind from/ knotsBaromVisibWave heightAir tempDewpointWater temp
2017-May-28 04:15N 49°01' W 002°22'417.3
2017-May-28 04:00N 49°05' W 002°22'713.8
2017-May-28 03:31N 49°12' W 002°22'713.8
2017-May-28 03:01N 49°18' W 002°20'714.5
2017-May-28 02:31N 49°25' W 002°15'714.2
2017-May-28 02:00N 49°31' W 002°11'714.7
2017-May-28 01:30N 49°38' W 002°07'816.0
2017-May-28 01:01N 49°46' W 002°02'712.6
2017-May-28 00:28N 49°51' W 001°56'815.7
2017-May-27 23:56N 49°58' W 001°49'715.5
2017-May-27 23:30N 50°04' W 001°43'814.8
2017-May-27 22:58N 50°10' W 001°36'714.2
2017-May-27 22:30N 50°16' W 001°30'713.9
2017-May-27 22:00N 50°21' W 001°24'713.8
2017-May-27 21:30N 50°27' W 001°17'713.2
2017-May-27 21:00N 50°32' W 001°12'612.9
2017-May-27 20:30N 50°38' W 001°06'611.6
2017-May-27 20:00N 50°43' W 001°03'611.7
2017-May-27 19:30N 50°48' W 001°07'1 1.5
2017-May-27 18:58N 50°49' W 001°06'0 0.0
2017-May-27 18:28N 50°49' W 001°06'0 0.0
2017-May-27 17:58N 50°49' W 001°06'0 0.0
2017-May-27 17:28N 50°49' W 001°06'0 0.8
2017-May-27 17:00N 50°49' W 001°06'4 8.4
2017-May-27 16:30N 50°45' W 001°05'612.9
2017-May-27 16:00N 50°39' W 000°59'816.0
2017-May-27 15:29N 50°32' W 001°05'815.9
2017-May-27 14:59N 50°25' W 001°12'816.1
2017-May-27 14:30N 50°18' W 001°18'49 3.7
2017-May-27 01:18N 49°39' W 002°05'3014.8
2017-May-26 23:17N 50°05' W 001°41'515.7
2017-May-26 23:00N 50°08' W 001°37'815.2
2017-May-26 22:30N 50°14' W 001°29'714.2
2017-May-26 21:59N 50°21' W 001°24'714.5
2017-May-26 21:30N 50°27' W 001°18'713.7
2017-May-26 21:00N 50°32' W 001°12'713.2
2017-May-26 20:31N 50°38' W 001°06'611.2
2017-May-26 20:00N 50°43' W 001°02'612.6
2017-May-26 19:31N 50°49' W 001°07'1 1.3
2017-May-26 19:00N 50°49' W 001°06'0 0.0
2017-May-26 18:30N 50°49' W 001°06'0 0.0
2017-May-26 18:00N 50°49' W 001°06'0 0.0
2017-May-26 17:30N 50°49' W 001°06'1 1.5
2017-May-26 17:01N 50°48' W 001°07'510.8
2017-May-26 16:30N 50°44' W 001°03'612.2
2017-May-26 16:00N 50°38' W 001°01'816.7
2017-May-26 15:30N 50°31' W 001°09'916.9
2017-May-26 15:00N 50°24' W 001°17'817.1
2017-May-26 14:30N 50°17' W 001°24'4416.4
2017-May-26 11:51N 49°43' W 002°06'616.4
2017-May-26 11:29N 49°37' W 002°08'919.0
2017-May-26 11:00N 49°28' W 002°14'26 3.9
2017-May-26 04:20N 49°03' W 002°22'515.0
2017-May-26 04:00N 49°08' W 002°22'714.5
2017-May-26 03:30N 49°15' W 002°21'2213.2
2017-May-26 01:48N 49°36' W 002°07'414.7
2017-May-26 01:30N 49°40' W 002°04'816.7
2017-May-26 01:00N 49°47' W 001°58'1614.5
2017-May-25 23:55N 49°60' W 001°43'817.4
2017-May-25 23:26N 50°07' W 001°38'2216.6
2017-May-25 22:08N 50°26' W 001°19'216.0
2017-May-25 22:00N 50°27' W 001°17'815.5
2017-May-25 21:30N 50°34' W 001°11'714.4
2017-May-25 21:01N 50°40' W 001°04'611.3
2017-May-25 20:30N 50°45' W 001°05'3 6.9
2017-May-25 20:00N 50°49' W 001°06'0 0.0
2017-May-25 19:29N 50°49' W 001°06'0 0.0
2017-May-25 18:59N 50°49' W 001°06'0 0.0
2017-May-25 18:30N 50°49' W 001°06'0 0.0
2017-May-25 17:59N 50°49' W 001°06'1 2.4
2017-May-25 17:30N 50°48' W 001°07'612.0
2017-May-25 17:00N 50°43' W 001°01'612.4
2017-May-25 16:31N 50°37' W 001°04'1019.3
2017-May-25 16:00N 50°30' W 001°13'918.9
2017-May-25 15:30N 50°21' W 001°20'918.0
2017-May-25 15:00N 50°14' W 001°28'817.0
2017-May-25 14:31N 50°07' W 001°35'1616.1
2017-May-25 13:31N 49°54' W 001°51'815.9
2017-May-25 13:00N 49°47' W 001°57'713.1
2017-May-25 12:29N 49°41' W 002°03'815.2
2017-May-25 11:59N 49°34' W 002°07'1917.2
2017-May-25 10:52N 49°17' W 002°20'2219.5
2017-May-25 09:46N 48°56' W 002°21'1620.5
2017-May-25 08:57N 48°42' W 002°06'4 1.3
2017-May-25 05:53N 48°39' W 002°03'715.8
2017-May-25 05:28N 48°45' W 002°08'2013.7
2017-May-25 04:02N 49°02' W 002°22'112.4
2017-May-25 04:00N 49°03' W 002°22'912.9
2017-May-25 03:20N 49°11' W 002°22'512.3
2017-May-25 02:55N 49°16' W 002°21'711.8
2017-May-25 02:19N 49°23' W 002°16'1913.6
2017-May-25 00:56N 49°39' W 002°03'2014.7
2017-May-24 23:36N 49°57' W 001°49'214.3
2017-May-24 23:29N 49°58' W 001°48'2216.8
2017-May-24 22:10N 50°17' W 001°29'316.1
2017-May-24 22:01N 50°19' W 001°27'916.4
2017-May-24 21:27N 50°26' W 001°18'715.6
2017-May-24 21:00N 50°32' W 001°12'715.0
2017-May-24 20:30N 50°38' W 001°06'611.7
2017-May-24 20:01N 50°44' W 001°04'5 9.8
2017-May-24 19:31N 50°49' W 001°06'0 0.7
2017-May-24 19:01N 50°49' W 001°06'0 0.0
2017-May-24 18:30N 50°49' W 001°06'0 0.0
2017-May-24 18:01N 50°49' W 001°06'0 0.0
2017-May-24 17:31N 50°49' W 001°06'0 0.0
2017-May-24 17:00N 50°49' W 001°06'0 0.0
2017-May-24 16:31N 50°49' W 001°06'0 0.0
2017-May-24 16:00N 50°49' W 001°06'0 0.0
2017-May-24 15:30N 50°49' W 001°06'0 0.0
2017-May-24 15:00N 50°49' W 001°06'0 0.0
2017-May-24 14:30N 50°49' W 001°06'0 0.0
2017-May-24 13:31N 50°49' W 001°06'0 0.0
2017-May-24 13:01N 50°49' W 001°06'0 0.0
2017-May-24 12:31N 50°49' W 001°06'0 0.0
2017-May-24 12:01N 50°49' W 001°06'0 0.0
2017-May-24 11:30N 50°49' W 001°06'0 0.0
2017-May-24 11:01N 50°49' W 001°06'0 0.0
2017-May-24 10:30N 50°49' W 001°06'0 0.0
2017-May-24 10:01N 50°49' W 001°06'0 0.0
2017-May-24 09:30N 50°49' W 001°06'0 0.0
2017-May-24 09:01N 50°49' W 001°06'0 0.0
2017-May-24 08:31N 50°49' W 001°06'0 0.0
2017-May-24 08:01N 50°49' W 001°06'0 0.0
2017-May-24 07:31N 50°49' W 001°06'0 0.0
2017-May-24 07:00N 50°49' W 001°06'0 0.6
2017-May-24 06:31N 50°49' W 001°06'4 8.8
2017-May-24 06:01N 50°44' W 001°04'612.7
2017-May-24 05:30N 50°38' W 001°06'917.3
2017-May-24 05:00N 50°31' W 001°13'1613.1
2017-May-24 03:47N 50°18' W 001°27'1214.5
2017-May-24 02:56N 50°07' W 001°38'914.1
2017-May-24 02:15N 49°60' W 001°47'75 3.6
2017-May-23 05:21N 48°47' W 002°11'1916.4
2017-May-23 04:10N 49°05' W 002°22'215.5
2017-May-23 04:00N 49°07' W 002°22'814.9
2017-May-23 03:30N 49°15' W 002°22'612.0
2017-May-23 03:00N 49°20' W 002°19'5 9.5
2017-May-23 02:30N 49°24' W 002°15'5 9.9
2017-May-23 02:01N 49°29' W 002°12'510.2
2017-May-23 01:31N 49°34' W 002°09'611.2
2017-May-23 01:01N 49°39' W 002°06'612.6
2017-May-23 00:30N 49°45' W 002°03'812.3
2017-May-22 23:53N 49°51' W 001°56'612.6
2017-May-22 23:26N 49°56' W 001°51'715.8
2017-May-22 23:00N 50°01' W 001°45'1117.7
2017-May-22 22:22N 50°10' W 001°33'617.4
2017-May-22 22:00N 50°14' W 001°26'816.6
2017-May-22 21:30N 50°22' W 001°23'815.8
2017-May-22 21:00N 50°29' W 001°17'816.9
2017-May-22 20:30N 50°36' W 001°08'714.7
2017-May-22 20:00N 50°42' W 001°03'612.1
2017-May-22 19:30N 50°48' W 001°07'1 2.3
2017-May-22 19:00N 50°49' W 001°06'0 0.0
2017-May-22 18:30N 50°49' W 001°06'0 0.0
2017-May-22 18:00N 50°49' W 001°06'0 0.0
2017-May-22 17:31N 50°49' W 001°06'0 0.1
2017-May-22 17:01N 50°49' W 001°06'4 8.2
2017-May-22 16:30N 50°45' W 001°05'713.4
2017-May-22 16:00N 50°38' W 001°06'817.0
2017-May-22 15:30N 50°31' W 001°14'1216.2
2017-May-22 14:45N 50°21' W 001°26'415.5
2017-May-22 14:29N 50°18' W 001°30'9615.7
2017-May-22 08:21N 48°45' W 002°09'6 1.5
2017-May-22 04:16N 48°50' W 002°15'515.3
2017-May-22 03:55N 48°54' W 002°21'5312.6
2017-May-21 23:44N 49°45' W 002°01'716.6
2017-May-21 23:18N 49°51' W 001°56'617.3
2017-May-21 22:55N 49°56' W 001°49'819.6
2017-May-21 22:31N 50°03' W 001°42'1618.0
2017-May-21 21:36N 50°17' W 001°28'117.5
2017-May-21 21:30N 50°18' W 001°27'917.4
2017-May-21 20:59N 50°26' W 001°19'817.4
2017-May-21 20:30N 50°33' W 001°12'917.2
2017-May-21 20:00N 50°40' W 001°04'612.4
2017-May-21 19:30N 50°46' W 001°06'3 5.0
2017-May-21 18:58N 50°49' W 001°06'0 0.0
2017-May-21 18:28N 50°49' W 001°06'0 0.0
2017-May-21 17:58N 50°49' W 001°06'0 0.0
2017-May-21 17:28N 50°49' W 001°06'0 0.0
2017-May-21 17:00N 50°49' W 001°06'4 7.8
2017-May-21 16:31N 50°45' W 001°05'714.1
2017-May-21 16:00N 50°38' W 001°06'1020.7
2017-May-21 15:30N 50°29' W 001°15'1019.3
2017-May-21 15:00N 50°21' W 001°24'1019.3
2017-May-21 14:28N 50°13' W 001°33'3318.7
2017-May-21 12:43N 49°45' W 002°01'420.4
2017-May-21 12:30N 49°41' W 002°04'1319.6
2017-May-21 11:52N 49°30' W 002°12'5216.8
2017-May-21 08:46N 48°38' W 002°02'0 0.0
2017-May-21 05:59N 48°38' W 002°02'8111.6
2017-May-20 22:59N 49°59' W 001°51'3516.7
2017-May-20 20:52N 50°27' W 001°18'616.8
2017-May-20 20:31N 50°32' W 001°12'816.8
2017-May-20 20:01N 50°39' W 001°05'612.0
2017-May-20 19:30N 50°45' W 001°05'3 6.7
2017-May-20 19:00N 50°49' W 001°06'0 0.0
2017-May-20 18:30N 50°49' W 001°06'0 0.0
2017-May-20 18:00N 50°49' W 001°06'0 0.0
2017-May-20 17:30N 50°49' W 001°06'0 0.0
2017-May-20 17:01N 50°49' W 001°06'4 7.4
2017-May-20 16:31N 50°45' W 001°05'714.4
2017-May-20 16:00N 50°38' W 001°06'20 1.1
2017-May-19 21:27N 50°21' W 001°24'716.3
2017-May-19 21:00N 50°27' W 001°18'816.6
2017-May-19 20:30N 50°34' W 001°10'816.2
2017-May-19 20:01N 50°41' W 001°03'612.6
2017-May-19 19:30N 50°47' W 001°06'2 3.9
2017-May-19 18:59N 50°49' W 001°06'0 0.0
2017-May-19 18:31N 50°49' W 001°06'0 0.0
2017-May-19 18:00N 50°49' W 001°06'0 0.0
2017-May-19 17:30N 50°49' W 001°06'2 3.9
2017-May-19 17:00N 50°47' W 001°06'815.4
2017-May-19 16:31N 50°41' W 000°58'815.6
2017-May-19 16:00N 50°36' W 001°08'917.0
2017-May-19 15:30N 50°30' W 001°17'7 0.4
2017-May-18 21:27N 50°23' W 001°21'716.6
2017-May-18 21:00N 50°30' W 001°14'816.1
2017-May-18 20:30N 50°36' W 001°08'714.1
2017-May-18 20:00N 50°43' W 001°03'612.0
2017-May-18 19:30N 50°48' W 001°07'1 1.5
2017-May-18 19:00N 50°49' W 001°06'0 0.0
2017-May-18 18:29N 50°49' W 001°06'0 0.0
2017-May-18 17:58N 50°49' W 001°06'0 0.0
2017-May-18 17:28N 50°49' W 001°06'0 0.0
2017-May-18 17:01N 50°49' W 001°06'3 6.7
2017-May-18 16:30N 50°45' W 001°05'815.3
2017-May-18 16:00N 50°38' W 001°07'  

Dump ship's entire track history